首页
METAR-TAF:

METAR-TAF

机场 :

大阪國際機場

大阪, 日本

纬度: 34-47N, 经度: 135-27E, 海拔: 12米

当前天气观测

该预报发布于34分钟前的07:00 UTC
风速6节,风向南转西南,在西之间变化
温度 13°C
湿度 44%
气压 1020 hPa
能見度: 8000
少量云层高于3000英尺
多云

METAR: RJOO 040700Z 21006KT 180V280 8000 FEW030 BKN/// 13/01 Q1020 RMK 1CU030 A3013

时间: 16:34 (07:34 UTC)

预报

该预报发布于2小时和29分钟前的05:05 UTC
预报有效从04日的 06点(UTC)到 05日的 12点(UTC)
风速8节,风向南转西南
能见度10公里或以上
少量云层高于2500英尺
散云层高于4500英尺
成为
从 04日的 06点(UTC)到 04日的 08点(UTC)
风速7节,风向北转西北
成为
从 04日的 21点(UTC)到 05日的 00点(UTC)
风速15节,风向东转东北
短暂存在
从 05日的 03点(UTC)到 05日的 12点(UTC)
能見度: 4000
雨, 轻雾,

TAF: RJOO 040505Z 0406/0512 21008KT 9999 FEW025 SCT045 BECMG 0406/0408 34007KT BECMG 0421/0500 07015KT TEMPO 0503/0512 4000 RA BR

超过4000个机场的气象观测和天气预报(METAR&TAF报告)。

可查询的气象台以黄色和红色小点在地图上表示。

将鼠标移到小点上方,可查看气象台名称。

然后点击查看天气观测和预报。

如需切换地图:点击带黑十字的绿色按钮放大地图;点击带横线的绿色按钮缩小地图;或者点击绿色箭头查看邻近地区的地图。


METAR-TAF: